EZY21YK EGKK-EKCH
Flight info
| Callsign | EZY21YK |
|---|---|
| Flight time | 1h 21m |
| Altitude | 35000 |
| Route | FRANE M604 PAAVO Q295 SOMVA DCT MAVAS DCT DOSUR DCT TALSA P729 TUDLO |
| Aircraft | A320/M-SDE3FGHIRWY/LB1 |
Departure
| Time | 2026-05-06 10:46 |
|---|---|
| Airport | London Gatwick Airport (EGKK) |
Arrival
| Time | 2026-05-06 12:07 |
|---|---|
| Airport | Copenhagen Kastrup Airport (EKCH) |
| Time | Latitude | Longitude | Altitude | Speed | Heading |
|---|---|---|---|---|---|
| 2026-05-06 10:02 | 51.15659 | -0.17694 | 212 ft | 0 kts | 167° |
| 2026-05-06 10:33 | 51.15667 | -0.17697 | 216 ft | 4 kts | 168° |
| 2026-05-06 10:33 | 51.15693 | -0.17704 | 216 ft | 4 kts | 176° |
| 2026-05-06 10:34 | 51.15720 | -0.17702 | 213 ft | 4 kts | 198° |
| 2026-05-06 10:34 | 51.15738 | -0.17683 | 206 ft | 2 kts | 255° |
| 2026-05-06 10:34 | 51.15738 | -0.17680 | 215 ft | 0 kts | 256° |
| 2026-05-06 10:37 | 51.15735 | -0.17700 | 210 ft | 4 kts | 256° |
| 2026-05-06 10:38 | 51.15730 | -0.17732 | 204 ft | 3 kts | 256° |
| 2026-05-06 10:38 | 51.15719 | -0.17814 | 213 ft | 13 kts | 258° |
| 2026-05-06 10:38 | 51.15700 | -0.17955 | 207 ft | 12 kts | 258° |
| 2026-05-06 10:38 | 51.15681 | -0.18091 | 204 ft | 15 kts | 257° |
| 2026-05-06 10:39 | 51.15629 | -0.18237 | 207 ft | 17 kts | 201° |
| 2026-05-06 10:39 | 51.15560 | -0.18292 | 216 ft | 11 kts | 212° |
| 2026-05-06 10:39 | 51.15478 | -0.18307 | 208 ft | 14 kts | 167° |
| 2026-05-06 10:39 | 51.15366 | -0.18268 | 209 ft | 17 kts | 168° |
| 2026-05-06 10:40 | 51.15257 | -0.18232 | 204 ft | 12 kts | 167° |
| 2026-05-06 10:40 | 51.15187 | -0.18287 | 210 ft | 14 kts | 259° |
| 2026-05-06 10:40 | 51.15169 | -0.18449 | 209 ft | 16 kts | 257° |
| 2026-05-06 10:40 | 51.15142 | -0.18642 | 210 ft | 20 kts | 257° |
| 2026-05-06 10:41 | 51.15111 | -0.18871 | 209 ft | 23 kts | 257° |
| 2026-05-06 10:41 | 51.15078 | -0.19108 | 207 ft | 20 kts | 257° |
| 2026-05-06 10:41 | 51.15047 | -0.19339 | 204 ft | 23 kts | 258° |
| 2026-05-06 10:41 | 51.15011 | -0.19601 | 208 ft | 26 kts | 257° |
| 2026-05-06 10:42 | 51.14971 | -0.19891 | 213 ft | 28 kts | 257° |
| 2026-05-06 10:42 | 51.14932 | -0.20169 | 205 ft | 25 kts | 258° |
| 2026-05-06 10:42 | 51.14895 | -0.20447 | 207 ft | 26 kts | 258° |
| 2026-05-06 10:42 | 51.14854 | -0.20737 | 207 ft | 27 kts | 258° |
| 2026-05-06 10:43 | 51.14816 | -0.21007 | 204 ft | 20 kts | 257° |
| 2026-05-06 10:43 | 51.14785 | -0.21183 | 206 ft | 16 kts | 249° |
| 2026-05-06 10:43 | 51.14761 | -0.21341 | 204 ft | 14 kts | 255° |
| 2026-05-06 10:44 | 51.14621 | -0.21324 | 207 ft | 10 kts | 162° |
| 2026-05-06 10:44 | 51.14555 | -0.21289 | 207 ft | 10 kts | 149° |
| 2026-05-06 10:44 | 51.14519 | -0.21198 | 210 ft | 9 kts | 101° |
| 2026-05-06 10:44 | 51.14526 | -0.21113 | 216 ft | 6 kts | 78° |
| 2026-05-06 10:45 | 51.14535 | -0.21047 | 209 ft | 10 kts | 78° |
| 2026-05-06 10:45 | 51.14598 | -0.20610 | 215 ft | 76 kts | 77° |
| 2026-05-06 10:45 | 51.14755 | -0.19473 | 210 ft | 132 kts | 77° |
| 2026-05-06 10:45 | 51.14961 | -0.17832 | 429 ft | 157 kts | 75° |
| 2026-05-06 10:46 | 51.15180 | -0.16134 | 1126 ft | 158 kts | 74° |
| 2026-05-06 10:46 | 51.15435 | -0.14388 | 1735 ft | 170 kts | 72° |
| 2026-05-06 10:46 | 51.15715 | -0.12450 | 2119 ft | 190 kts | 73° |
| 2026-05-06 10:46 | 51.16005 | -0.10358 | 2505 ft | 206 kts | 74° |
| 2026-05-06 10:47 | 51.16328 | -0.07999 | 2883 ft | 230 kts | 74° |
| 2026-05-06 10:47 | 51.16687 | -0.05399 | 3374 ft | 249 kts | 73° |
| 2026-05-06 10:47 | 51.16888 | -0.02630 | 3631 ft | 256 kts | 87° |
| 2026-05-06 10:47 | 51.16838 | 0.00221 | 3926 ft | 259 kts | 88° |
| 2026-05-06 10:48 | 51.16786 | 0.03110 | 4184 ft | 263 kts | 88° |
| 2026-05-06 10:48 | 51.16732 | 0.06039 | 4454 ft | 265 kts | 87° |
| 2026-05-06 10:48 | 51.16676 | 0.08987 | 4727 ft | 267 kts | 87° |
| 2026-05-06 10:48 | 51.16621 | 0.11955 | 4967 ft | 270 kts | 87° |
| 2026-05-06 10:49 | 51.16568 | 0.14824 | 5078 ft | 272 kts | 87° |
| 2026-05-06 10:49 | 51.16567 | 0.17849 | 5921 ft | 272 kts | 79° |
| 2026-05-06 10:49 | 51.17104 | 0.20704 | 6758 ft | 269 kts | 56° |
| 2026-05-06 10:49 | 51.18310 | 0.22939 | 7566 ft | 267 kts | 33° |
| 2026-05-06 10:50 | 51.19914 | 0.24435 | 8380 ft | 269 kts | 26° |
| 2026-05-06 10:50 | 51.21572 | 0.25862 | 9226 ft | 273 kts | 26° |
| 2026-05-06 10:50 | 51.23255 | 0.27311 | 10016 ft | 277 kts | 26° |
| 2026-05-06 10:50 | 51.24989 | 0.28807 | 10517 ft | 293 kts | 26° |
| 2026-05-06 10:51 | 51.26855 | 0.30421 | 10740 ft | 317 kts | 26° |
| 2026-05-06 10:51 | 51.28815 | 0.32128 | 11150 ft | 331 kts | 27° |
| 2026-05-06 10:51 | 51.30876 | 0.33934 | 11831 ft | 336 kts | 27° |
| 2026-05-06 10:51 | 51.32914 | 0.35723 | 12428 ft | 341 kts | 27° |
| 2026-05-06 10:52 | 51.35012 | 0.37563 | 13096 ft | 346 kts | 26° |
| 2026-05-06 10:52 | 51.37134 | 0.39424 | 13781 ft | 350 kts | 27° |
| 2026-05-06 10:52 | 51.39289 | 0.41314 | 14369 ft | 355 kts | 27° |
| 2026-05-06 10:52 | 51.41464 | 0.43227 | 14963 ft | 359 kts | 26° |
| 2026-05-06 10:53 | 51.43664 | 0.45163 | 15559 ft | 363 kts | 27° |
| 2026-05-06 10:53 | 51.45891 | 0.47124 | 16161 ft | 367 kts | 26° |
| 2026-05-06 10:53 | 51.48141 | 0.49103 | 16740 ft | 371 kts | 27° |
| 2026-05-06 10:53 | 51.50419 | 0.51112 | 17325 ft | 375 kts | 27° |
| 2026-05-06 10:54 | 51.52718 | 0.53145 | 17897 ft | 380 kts | 26° |
| 2026-05-06 10:54 | 51.55041 | 0.55198 | 18446 ft | 383 kts | 27° |
| 2026-05-06 10:54 | 51.57388 | 0.57275 | 18932 ft | 387 kts | 27° |
| 2026-05-06 10:54 | 51.59760 | 0.59375 | 19428 ft | 391 kts | 27° |
| 2026-05-06 10:55 | 51.62153 | 0.61498 | 19903 ft | 395 kts | 27° |
| 2026-05-06 10:55 | 51.64566 | 0.63646 | 20376 ft | 398 kts | 27° |
| 2026-05-06 10:55 | 51.67000 | 0.65816 | 20835 ft | 402 kts | 27° |
| 2026-05-06 10:55 | 51.69458 | 0.68011 | 21284 ft | 405 kts | 27° |
| 2026-05-06 10:56 | 51.71875 | 0.70377 | 21770 ft | 410 kts | 37° |
| 2026-05-06 10:56 | 51.73864 | 0.73685 | 22205 ft | 414 kts | 55° |
| 2026-05-06 10:56 | 51.75231 | 0.77784 | 22660 ft | 417 kts | 65° |
| 2026-05-06 10:56 | 51.76452 | 0.82053 | 23090 ft | 420 kts | 65° |
| 2026-05-06 10:57 | 51.77667 | 0.86361 | 23546 ft | 423 kts | 66° |
| 2026-05-06 10:57 | 51.78883 | 0.90699 | 23918 ft | 426 kts | 66° |
| 2026-05-06 10:57 | 51.80108 | 0.95068 | 24308 ft | 428 kts | 66° |
| 2026-05-06 10:57 | 51.81342 | 0.99461 | 24683 ft | 430 kts | 66° |
| 2026-05-06 10:58 | 51.82584 | 1.03876 | 25045 ft | 433 kts | 66° |
| 2026-05-06 10:58 | 51.83833 | 1.08314 | 25414 ft | 435 kts | 66° |
| 2026-05-06 10:58 | 51.85088 | 1.12781 | 25800 ft | 437 kts | 66° |
| 2026-05-06 10:58 | 51.86348 | 1.17266 | 26164 ft | 439 kts | 66° |
| 2026-05-06 10:59 | 51.87594 | 1.21720 | 26517 ft | 441 kts | 66° |
| 2026-05-06 10:59 | 51.88859 | 1.26255 | 26876 ft | 443 kts | 66° |
| 2026-05-06 10:59 | 51.90128 | 1.30811 | 27235 ft | 445 kts | 66° |
| 2026-05-06 10:59 | 51.91405 | 1.35396 | 27575 ft | 448 kts | 66° |
| 2026-05-06 11:00 | 51.92685 | 1.40005 | 27922 ft | 450 kts | 66° |
| 2026-05-06 11:00 | 51.93970 | 1.44637 | 28246 ft | 452 kts | 66° |
| 2026-05-06 11:00 | 51.95259 | 1.49294 | 28583 ft | 453 kts | 66° |
| 2026-05-06 11:00 | 51.96549 | 1.53972 | 28932 ft | 455 kts | 66° |
| 2026-05-06 11:01 | 51.97838 | 1.58661 | 29261 ft | 456 kts | 66° |
| 2026-05-06 11:01 | 51.99132 | 1.63369 | 29556 ft | 458 kts | 66° |
| 2026-05-06 11:01 | 52.00428 | 1.68097 | 29865 ft | 460 kts | 66° |
| 2026-05-06 11:01 | 52.01729 | 1.72846 | 30122 ft | 462 kts | 66° |
| 2026-05-06 11:02 | 52.03035 | 1.77615 | 30383 ft | 463 kts | 66° |
| 2026-05-06 11:02 | 52.04345 | 1.82403 | 30613 ft | 465 kts | 66° |
| 2026-05-06 11:02 | 52.05657 | 1.87213 | 30847 ft | 466 kts | 66° |
| 2026-05-06 11:02 | 52.06968 | 1.92027 | 31176 ft | 466 kts | 66° |
| 2026-05-06 11:03 | 52.08274 | 1.96842 | 31513 ft | 464 kts | 67° |
| 2026-05-06 11:03 | 52.09570 | 2.01639 | 31885 ft | 463 kts | 67° |
| 2026-05-06 11:03 | 52.10857 | 2.06421 | 32258 ft | 461 kts | 67° |
| 2026-05-06 11:03 | 52.12140 | 2.11195 | 32583 ft | 460 kts | 67° |
| 2026-05-06 11:04 | 52.13421 | 2.15973 | 32915 ft | 459 kts | 67° |
| 2026-05-06 11:04 | 52.14695 | 2.20738 | 33238 ft | 459 kts | 67° |
| 2026-05-06 11:04 | 52.15966 | 2.25494 | 33588 ft | 458 kts | 67° |
| 2026-05-06 11:04 | 52.17237 | 2.30244 | 33906 ft | 457 kts | 67° |
| 2026-05-06 11:05 | 52.18507 | 2.34989 | 34195 ft | 457 kts | 67° |
| 2026-05-06 11:05 | 52.19777 | 2.39744 | 34416 ft | 457 kts | 67° |
| 2026-05-06 11:05 | 52.21043 | 2.44495 | 34666 ft | 457 kts | 67° |
| 2026-05-06 11:05 | 52.22306 | 2.49254 | 34867 ft | 458 kts | 67° |
| 2026-05-06 11:06 | 52.23568 | 2.54025 | 34948 ft | 457 kts | 68° |
| 2026-05-06 11:06 | 52.26062 | 2.63531 | 34960 ft | 455 kts | 68° |
| 2026-05-06 11:07 | 52.28548 | 2.73045 | 34955 ft | 456 kts | 68° |
| 2026-05-06 11:07 | 52.31038 | 2.82564 | 34952 ft | 455 kts | 68° |
| 2026-05-06 11:08 | 52.33525 | 2.92083 | 34952 ft | 455 kts | 68° |
| 2026-05-06 11:08 | 52.35994 | 3.01631 | 34939 ft | 455 kts | 68° |
| 2026-05-06 11:09 | 52.38452 | 3.11175 | 34942 ft | 455 kts | 68° |
| 2026-05-06 11:09 | 52.41486 | 3.20245 | 34939 ft | 456 kts | 53° |
| 2026-05-06 11:10 | 52.44659 | 3.27141 | 34944 ft | 456 kts | 53° |
| 2026-05-06 11:10 | 52.48464 | 3.35462 | 34946 ft | 456 kts | 53° |
| 2026-05-06 11:11 | 52.52263 | 3.43809 | 34934 ft | 457 kts | 54° |
| 2026-05-06 11:11 | 52.56053 | 3.52192 | 34931 ft | 457 kts | 54° |
| 2026-05-06 11:12 | 52.59842 | 3.60578 | 34923 ft | 457 kts | 54° |
| 2026-05-06 11:12 | 52.63632 | 3.68980 | 34928 ft | 457 kts | 54° |
| 2026-05-06 11:13 | 52.67407 | 3.77411 | 34931 ft | 457 kts | 54° |
| 2026-05-06 11:13 | 52.71178 | 3.85837 | 34928 ft | 457 kts | 54° |
| 2026-05-06 11:14 | 52.74946 | 3.94284 | 34925 ft | 457 kts | 54° |
| 2026-05-06 11:14 | 52.78706 | 4.02779 | 34906 ft | 458 kts | 54° |
| 2026-05-06 11:15 | 52.82461 | 4.11273 | 34913 ft | 458 kts | 54° |
| 2026-05-06 11:15 | 52.86213 | 4.19764 | 34915 ft | 457 kts | 54° |
| 2026-05-06 11:16 | 52.89963 | 4.28279 | 34919 ft | 457 kts | 55° |
| 2026-05-06 11:16 | 52.93698 | 4.36807 | 34929 ft | 457 kts | 55° |
| 2026-05-06 11:17 | 52.97430 | 4.45355 | 34925 ft | 458 kts | 55° |
| 2026-05-06 11:17 | 53.01161 | 4.53917 | 34921 ft | 458 kts | 55° |
| 2026-05-06 11:18 | 53.04891 | 4.62505 | 34914 ft | 458 kts | 55° |
| 2026-05-06 11:18 | 53.08611 | 4.71118 | 34906 ft | 458 kts | 55° |
| 2026-05-06 11:19 | 53.12327 | 4.79745 | 34928 ft | 459 kts | 55° |
| 2026-05-06 11:19 | 53.16019 | 4.88323 | 34938 ft | 459 kts | 55° |
| 2026-05-06 11:20 | 53.19729 | 4.96978 | 34931 ft | 459 kts | 55° |
| 2026-05-06 11:20 | 53.23438 | 5.05667 | 34926 ft | 460 kts | 55° |
| 2026-05-06 11:21 | 53.27125 | 5.14395 | 34937 ft | 459 kts | 61° |
| 2026-05-06 11:21 | 53.30531 | 5.23421 | 35010 ft | 458 kts | 65° |
| 2026-05-06 11:22 | 53.34026 | 5.32397 | 34959 ft | 462 kts | 58° |
| 2026-05-06 11:22 | 53.38024 | 5.40832 | 34968 ft | 462 kts | 56° |
| 2026-05-06 11:23 | 53.41937 | 5.49340 | 34955 ft | 460 kts | 59° |
| 2026-05-06 11:23 | 53.45520 | 5.58213 | 35015 ft | 459 kts | 63° |
| 2026-05-06 11:24 | 53.48810 | 5.67407 | 35007 ft | 461 kts | 63° |
| 2026-05-06 11:24 | 53.52490 | 5.76233 | 34950 ft | 463 kts | 57° |
| 2026-05-06 11:25 | 53.56439 | 5.84750 | 34932 ft | 461 kts | 58° |
| 2026-05-06 11:25 | 53.60232 | 5.93423 | 34975 ft | 460 kts | 60° |
| 2026-05-06 11:26 | 53.63813 | 6.02350 | 34936 ft | 460 kts | 62° |
| 2026-05-06 11:26 | 53.67278 | 6.11429 | 35010 ft | 461 kts | 62° |
| 2026-05-06 11:27 | 53.70853 | 6.20414 | 34929 ft | 462 kts | 60° |
| 2026-05-06 11:27 | 53.74594 | 6.29215 | 34978 ft | 461 kts | 59° |
| 2026-05-06 11:28 | 53.78399 | 6.37960 | 35098 ft | 462 kts | 59° |
| 2026-05-06 11:28 | 53.80246 | 6.42394 | 34961 ft | 460 kts | 61° |
| 2026-05-06 11:28 | 53.82016 | 6.46896 | 34926 ft | 460 kts | 62° |
| 2026-05-06 11:29 | 53.85429 | 6.56060 | 34949 ft | 461 kts | 63° |
| 2026-05-06 11:29 | 53.88956 | 6.65149 | 34935 ft | 462 kts | 61° |
| 2026-05-06 11:30 | 53.92621 | 6.74095 | 34880 ft | 462 kts | 60° |
| 2026-05-06 11:30 | 53.96235 | 6.83007 | 34995 ft | 461 kts | 61° |
| 2026-05-06 11:31 | 53.99839 | 6.92141 | 34969 ft | 463 kts | 61° |
| 2026-05-06 11:31 | 54.03367 | 7.01227 | 34909 ft | 463 kts | 62° |
| 2026-05-06 11:32 | 54.06943 | 7.10460 | 34954 ft | 466 kts | 61° |
| 2026-05-06 11:32 | 54.10565 | 7.19621 | 35044 ft | 466 kts | 61° |
| 2026-05-06 11:33 | 54.14052 | 7.28836 | 34948 ft | 465 kts | 64° |
| 2026-05-06 11:33 | 54.17304 | 7.38456 | 34956 ft | 465 kts | 66° |
| 2026-05-06 11:34 | 54.20520 | 7.48044 | 34923 ft | 466 kts | 64° |
| 2026-05-06 11:34 | 54.23957 | 7.57433 | 34978 ft | 466 kts | 63° |
| 2026-05-06 11:35 | 54.27437 | 7.66779 | 34905 ft | 467 kts | 63° |
| 2026-05-06 11:35 | 54.30809 | 7.76215 | 34946 ft | 468 kts | 64° |
| 2026-05-06 11:36 | 54.34152 | 7.85874 | 34929 ft | 469 kts | 64° |
| 2026-05-06 11:36 | 54.37520 | 7.95353 | 35075 ft | 469 kts | 63° |
| 2026-05-06 11:37 | 54.40972 | 8.04872 | 34980 ft | 469 kts | 64° |
| 2026-05-06 11:37 | 54.44287 | 8.14459 | 34868 ft | 466 kts | 66° |
| 2026-05-06 11:38 | 54.47518 | 8.24117 | 34960 ft | 466 kts | 66° |
| 2026-05-06 11:38 | 54.50781 | 8.33834 | 35077 ft | 471 kts | 65° |
| 2026-05-06 11:39 | 54.54204 | 8.43479 | 34917 ft | 472 kts | 64° |
| 2026-05-06 11:39 | 54.57628 | 8.53099 | 34862 ft | 471 kts | 64° |
| 2026-05-06 11:40 | 54.60994 | 8.62785 | 34988 ft | 471 kts | 65° |
| 2026-05-06 11:40 | 54.64273 | 8.72536 | 34911 ft | 469 kts | 66° |
| 2026-05-06 11:41 | 54.67546 | 8.82282 | 34948 ft | 469 kts | 65° |
| 2026-05-06 11:41 | 54.70881 | 8.92001 | 34926 ft | 472 kts | 65° |
| 2026-05-06 11:42 | 54.74229 | 9.01777 | 34954 ft | 473 kts | 65° |
| 2026-05-06 11:42 | 54.77523 | 9.11542 | 34950 ft | 473 kts | 65° |
| 2026-05-06 11:43 | 54.80839 | 9.21384 | 34920 ft | 473 kts | 65° |
| 2026-05-06 11:43 | 54.84135 | 9.31239 | 34888 ft | 470 kts | 66° |
| 2026-05-06 11:44 | 54.88982 | 9.46013 | 34882 ft | 470 kts | 66° |
| 2026-05-06 11:44 | 54.90609 | 9.50944 | 34681 ft | 471 kts | 66° |
| 2026-05-06 11:44 | 54.92245 | 9.55877 | 34466 ft | 472 kts | 66° |
| 2026-05-06 11:45 | 54.93888 | 9.60831 | 34231 ft | 473 kts | 66° |
| 2026-05-06 11:45 | 54.95530 | 9.65837 | 33113 ft | 481 kts | 66° |
| 2026-05-06 11:45 | 54.97192 | 9.70934 | 32255 ft | 482 kts | 66° |
| 2026-05-06 11:45 | 54.98823 | 9.75949 | 31832 ft | 472 kts | 66° |
| 2026-05-06 11:46 | 55.00444 | 9.80886 | 31261 ft | 467 kts | 66° |
| 2026-05-06 11:46 | 55.02049 | 9.85746 | 30739 ft | 460 kts | 66° |
| 2026-05-06 11:46 | 55.03633 | 9.90575 | 30064 ft | 458 kts | 66° |
| 2026-05-06 11:46 | 55.05197 | 9.95389 | 29394 ft | 454 kts | 65° |
| 2026-05-06 11:47 | 55.06747 | 10.00149 | 28839 ft | 448 kts | 65° |
| 2026-05-06 11:47 | 55.08276 | 10.04831 | 28332 ft | 441 kts | 65° |
| 2026-05-06 11:47 | 55.09785 | 10.09448 | 27766 ft | 436 kts | 65° |
| 2026-05-06 11:47 | 55.11257 | 10.14040 | 27189 ft | 432 kts | 66° |
| 2026-05-06 11:48 | 55.12695 | 10.18615 | 26657 ft | 427 kts | 66° |
| 2026-05-06 11:48 | 55.14097 | 10.23146 | 26152 ft | 421 kts | 66° |
| 2026-05-06 11:48 | 55.15510 | 10.27617 | 25613 ft | 419 kts | 65° |
| 2026-05-06 11:48 | 55.16938 | 10.32028 | 25111 ft | 414 kts | 65° |
| 2026-05-06 11:49 | 55.18362 | 10.36368 | 24674 ft | 409 kts | 65° |
| 2026-05-06 11:49 | 55.19775 | 10.40663 | 24192 ft | 405 kts | 65° |
| 2026-05-06 11:49 | 55.21168 | 10.44925 | 23670 ft | 403 kts | 65° |
| 2026-05-06 11:49 | 55.22539 | 10.49203 | 23076 ft | 401 kts | 65° |
| 2026-05-06 11:50 | 55.23879 | 10.53461 | 22598 ft | 396 kts | 65° |
| 2026-05-06 11:50 | 55.25180 | 10.57675 | 22201 ft | 390 kts | 66° |
| 2026-05-06 11:50 | 55.26442 | 10.61836 | 21796 ft | 384 kts | 66° |
| 2026-05-06 11:50 | 55.27605 | 10.66018 | 21364 ft | 379 kts | 72° |
| 2026-05-06 11:51 | 55.28497 | 10.70343 | 20902 ft | 375 kts | 77° |
| 2026-05-06 11:51 | 55.29246 | 10.74714 | 20414 ft | 373 kts | 79° |
| 2026-05-06 11:51 | 55.29937 | 10.79084 | 19986 ft | 370 kts | 79° |
| 2026-05-06 11:51 | 55.30632 | 10.83392 | 19612 ft | 365 kts | 79° |
| 2026-05-06 11:52 | 55.31338 | 10.87667 | 19119 ft | 364 kts | 78° |
| 2026-05-06 11:52 | 55.32055 | 10.91930 | 18622 ft | 364 kts | 78° |
| 2026-05-06 11:52 | 55.32783 | 10.96179 | 18153 ft | 363 kts | 77° |
| 2026-05-06 11:52 | 55.33509 | 11.00414 | 17653 ft | 361 kts | 77° |
| 2026-05-06 11:53 | 55.34222 | 11.04627 | 17185 ft | 358 kts | 78° |
| 2026-05-06 11:53 | 55.34909 | 11.08813 | 16747 ft | 355 kts | 78° |
| 2026-05-06 11:53 | 55.35578 | 11.12980 | 16220 ft | 355 kts | 78° |
| 2026-05-06 11:53 | 55.36240 | 11.17143 | 15789 ft | 352 kts | 78° |
| 2026-05-06 11:54 | 55.36908 | 11.21267 | 15395 ft | 349 kts | 78° |
| 2026-05-06 11:54 | 55.37587 | 11.25287 | 15023 ft | 346 kts | 77° |
| 2026-05-06 11:54 | 55.38263 | 11.29337 | 14602 ft | 344 kts | 78° |
| 2026-05-06 11:54 | 55.38908 | 11.33370 | 14204 ft | 341 kts | 78° |
| 2026-05-06 11:55 | 55.39542 | 11.37384 | 13799 ft | 340 kts | 78° |
| 2026-05-06 11:55 | 55.40178 | 11.41393 | 13268 ft | 341 kts | 78° |
| 2026-05-06 11:55 | 55.40813 | 11.45403 | 12722 ft | 340 kts | 79° |
| 2026-05-06 11:55 | 55.41189 | 11.49499 | 12312 ft | 336 kts | 88° |
| 2026-05-06 11:56 | 55.41402 | 11.53579 | 11875 ft | 334 kts | 90° |
| 2026-05-06 11:56 | 55.41578 | 11.57622 | 11467 ft | 330 kts | 90° |
| 2026-05-06 11:56 | 55.41742 | 11.61640 | 10959 ft | 330 kts | 89° |
| 2026-05-06 11:56 | 55.41958 | 11.65661 | 10483 ft | 329 kts | 88° |
| 2026-05-06 11:57 | 55.42119 | 11.68303 | 10201 ft | 327 kts | 88° |
| 2026-05-06 11:57 | 55.42359 | 11.72253 | 9904 ft | 320 kts | 87° |
| 2026-05-06 11:57 | 55.42610 | 11.76077 | 9685 ft | 310 kts | 87° |
| 2026-05-06 11:57 | 55.42864 | 11.79787 | 9436 ft | 301 kts | 87° |
| 2026-05-06 11:58 | 55.43114 | 11.83392 | 9224 ft | 291 kts | 88° |
| 2026-05-06 11:58 | 55.43337 | 11.86927 | 8716 ft | 291 kts | 88° |
| 2026-05-06 11:58 | 55.43541 | 11.90419 | 8118 ft | 281 kts | 88° |
| 2026-05-06 11:58 | 55.43723 | 11.93806 | 7654 ft | 276 kts | 88° |
| 2026-05-06 11:59 | 55.43913 | 11.97154 | 7238 ft | 274 kts | 88° |
| 2026-05-06 11:59 | 55.44119 | 12.00460 | 6922 ft | 268 kts | 87° |
| 2026-05-06 11:59 | 55.44329 | 12.03751 | 6360 ft | 273 kts | 87° |
| 2026-05-06 11:59 | 55.44537 | 12.07039 | 6029 ft | 266 kts | 87° |
| 2026-05-06 12:00 | 55.44736 | 12.10287 | 5402 ft | 270 kts | 87° |
| 2026-05-06 12:00 | 55.44924 | 12.13550 | 4757 ft | 263 kts | 87° |
| 2026-05-06 12:00 | 55.45091 | 12.16676 | 4399 ft | 251 kts | 88° |
| 2026-05-06 12:00 | 55.45257 | 12.19647 | 4001 ft | 236 kts | 88° |
| 2026-05-06 12:01 | 55.45423 | 12.22414 | 3750 ft | 217 kts | 89° |
| 2026-05-06 12:01 | 55.45575 | 12.24987 | 3675 ft | 205 kts | 89° |
| 2026-05-06 12:01 | 55.45710 | 12.27423 | 3569 ft | 195 kts | 91° |
| 2026-05-06 12:01 | 55.45847 | 12.29749 | 3492 ft | 189 kts | 90° |
| 2026-05-06 12:02 | 55.45997 | 12.32040 | 3376 ft | 188 kts | 91° |
| 2026-05-06 12:02 | 55.46125 | 12.34326 | 3260 ft | 187 kts | 92° |
| 2026-05-06 12:02 | 55.46248 | 12.36601 | 3166 ft | 187 kts | 92° |
| 2026-05-06 12:02 | 55.46376 | 12.38880 | 3088 ft | 187 kts | 89° |
| 2026-05-06 12:03 | 55.46792 | 12.41057 | 3008 ft | 190 kts | 65° |
| 2026-05-06 12:03 | 55.47666 | 12.42655 | 3020 ft | 172 kts | 53° |
| 2026-05-06 12:03 | 55.48553 | 12.43999 | 2752 ft | 168 kts | 54° |
| 2026-05-06 12:03 | 55.49431 | 12.45322 | 2494 ft | 164 kts | 54° |
| 2026-05-06 12:04 | 55.50286 | 12.46619 | 2292 ft | 160 kts | 57° |
| 2026-05-06 12:04 | 55.51117 | 12.47886 | 2124 ft | 154 kts | 56° |
| 2026-05-06 12:04 | 55.51905 | 12.49073 | 1974 ft | 144 kts | 58° |
| 2026-05-06 12:04 | 55.52634 | 12.50215 | 1853 ft | 141 kts | 57° |
| 2026-05-06 12:05 | 55.53373 | 12.51345 | 1649 ft | 140 kts | 58° |
| 2026-05-06 12:05 | 55.54101 | 12.52472 | 1419 ft | 139 kts | 58° |
| 2026-05-06 12:05 | 55.54837 | 12.53587 | 1224 ft | 138 kts | 58° |
| 2026-05-06 12:05 | 55.55558 | 12.54696 | 1033 ft | 137 kts | 60° |
| 2026-05-06 12:06 | 55.56278 | 12.55797 | 814 ft | 137 kts | 58° |
| 2026-05-06 12:06 | 55.56987 | 12.56894 | 638 ft | 134 kts | 59° |
| 2026-05-06 12:06 | 55.57700 | 12.58021 | 468 ft | 139 kts | 57° |
| 2026-05-06 12:06 | 55.58440 | 12.59143 | 270 ft | 142 kts | 54° |
| 2026-05-06 12:07 | 55.59180 | 12.60268 | 98 ft | 139 kts | 56° |
| 2026-05-06 12:07 | 55.59850 | 12.61320 | 23 ft | 109 kts | 42° |
| 2026-05-06 12:07 | 55.60286 | 12.61996 | 26 ft | 54 kts | 41° |
| 2026-05-06 12:07 | 55.60452 | 12.62241 | 25 ft | 20 kts | 33° |
| 2026-05-06 12:08 | 55.60581 | 12.62329 | 28 ft | 16 kts | 9° |
| 2026-05-06 12:08 | 55.60703 | 12.62367 | 24 ft | 19 kts | 11° |
| 2026-05-06 12:08 | 55.60830 | 12.62459 | 26 ft | 20 kts | 43° |
| 2026-05-06 12:08 | 55.60937 | 12.62627 | 24 ft | 21 kts | 40° |
| 2026-05-06 12:09 | 55.61049 | 12.62800 | 26 ft | 22 kts | 41° |
| 2026-05-06 12:09 | 55.61159 | 12.62970 | 24 ft | 21 kts | 40° |
| 2026-05-06 12:09 | 55.61269 | 12.63137 | 24 ft | 21 kts | 41° |
| 2026-05-06 12:09 | 55.61380 | 12.63310 | 26 ft | 22 kts | 41° |
| 2026-05-06 12:10 | 55.61491 | 12.63482 | 24 ft | 21 kts | 40° |
| 2026-05-06 12:10 | 55.61602 | 12.63652 | 24 ft | 21 kts | 43° |
| 2026-05-06 12:10 | 55.61702 | 12.63812 | 24 ft | 18 kts | 39° |
| 2026-05-06 12:10 | 55.61795 | 12.63952 | 24 ft | 13 kts | 41° |
| 2026-05-06 12:11 | 55.61874 | 12.64066 | 24 ft | 15 kts | 33° |
| 2026-05-06 12:11 | 55.61932 | 12.64185 | 24 ft | 17 kts | 76° |
| 2026-05-06 12:11 | 55.61952 | 12.64370 | 24 ft | 14 kts | 77° |
| 2026-05-06 12:11 | 55.62002 | 12.64499 | 24 ft | 14 kts | 64° |
| 2026-05-06 12:12 | 55.62059 | 12.64596 | 23 ft | 13 kts | 32° |
| 2026-05-06 12:12 | 55.62157 | 12.64707 | 25 ft | 20 kts | 33° |
| 2026-05-06 12:12 | 55.62248 | 12.64816 | 24 ft | 16 kts | 35° |
| 2026-05-06 12:12 | 55.62317 | 12.64905 | 24 ft | 10 kts | 46° |
| 2026-05-06 12:13 | 55.62298 | 12.65020 | 26 ft | 12 kts | 128° |
| 2026-05-06 12:13 | 55.62284 | 12.65151 | 24 ft | 10 kts | 64° |
| 2026-05-06 12:13 | 55.62336 | 12.65205 | 24 ft | 9 kts | 360° |
| 2026-05-06 12:13 | 55.62414 | 12.65207 | 24 ft | 12 kts | 18° |
| 2026-05-06 12:14 | 55.62441 | 12.65363 | 24 ft | 16 kts | 89° |
| 2026-05-06 12:14 | 55.62443 | 12.65533 | 24 ft | 14 kts | 89° |
| 2026-05-06 12:14 | 55.62445 | 12.65659 | 26 ft | 4 kts | 86° |
| 2026-05-06 12:14 | 55.62455 | 12.65680 | 24 ft | 5 kts | 37° |
| 2026-05-06 12:15 | 55.62500 | 12.65683 | 24 ft | 6 kts | 358° |
| 2026-05-06 12:15 | 55.62521 | 12.65682 | 24 ft | 2 kts | 358° |
| 2026-05-06 12:15 | 55.62522 | 12.65682 | 24 ft | 0 kts | 358° |